createdAt,value
2023-11-07T00:01:06.906Z,100407.34
2023-11-07T00:04:10.569Z,100413.19
2023-11-07T00:07:16.310Z,100413.78
2023-11-07T00:10:20.304Z,100415.88
2023-11-07T00:13:23.398Z,100418.38
2023-11-07T00:16:28.944Z,100414.72
2023-11-07T00:19:32.790Z,100424.56
2023-11-07T00:22:37.902Z,100413.59
2023-11-07T00:25:44.271Z,100421.16
2023-11-07T00:28:50.475Z,100416.44
2023-11-07T00:31:55.460Z,100422.84
2023-11-07T00:35:00.993Z,100393.13
2023-11-07T00:38:07.324Z,100422.03
2023-11-07T00:41:14.609Z,100414.31
2023-11-07T00:44:19.558Z,100416.75
2023-11-07T00:47:23.202Z,100425.12
2023-11-07T00:50:26.366Z,100432.31
2023-11-07T00:53:30.863Z,100421.34
2023-11-07T00:56:34.304Z,100420.03
2023-11-07T00:59:37.851Z,100420.25
2023-11-07T01:02:45.362Z,100416.28
2023-11-07T01:05:49.996Z,100392.31
2023-11-07T01:08:53.485Z,100403.19
2023-11-07T01:11:57.521Z,100412.56
2023-11-07T01:15:01.078Z,100396.06
2023-11-07T01:18:08.484Z,100407.97
2023-11-07T01:21:12.039Z,100413.91
2023-11-07T01:24:16.204Z,100408.81
2023-11-07T01:27:19.319Z,100413.66
2023-11-07T01:30:23.473Z,100422.78
2023-11-07T01:33:27.328Z,100416.50
2023-11-07T01:36:31.429Z,100414.00
2023-11-07T01:39:35.391Z,100436.16
2023-11-07T01:42:48.601Z,100431.50
2023-11-07T01:45:52.271Z,100432.47
2023-11-07T01:49:00.022Z,100436.03
2023-11-07T01:52:08.121Z,100390.53
2023-11-07T01:55:18.116Z,100432.47
2023-11-07T01:58:28.225Z,100407.63
2023-11-07T02:01:39.745Z,100421.66
2023-11-07T02:05:21.404Z,100419.63
2023-11-07T02:09:10.623Z,100428.16
2023-11-07T02:12:15.081Z,100430.91
2023-11-07T02:15:30.916Z,100441.09
2023-11-07T02:18:35.577Z,100440.66
2023-11-07T02:21:39.466Z,100435.94
2023-11-07T02:24:43.194Z,100443.13
2023-11-07T02:27:49.491Z,100433.25
2023-11-07T02:30:55.754Z,100430.63
2023-11-07T02:33:59.342Z,100440.34
2023-11-07T02:37:03.469Z,100427.37
2023-11-07T02:40:07.945Z,100429.59
2023-11-07T02:43:11.599Z,100441.97
2023-11-07T02:46:15.243Z,100444.44
2023-11-07T02:49:18.820Z,100446.13
2023-11-07T02:52:22.903Z,100438.59
2023-11-07T02:55:29.889Z,100442.19
2023-11-07T02:58:33.097Z,100449.63
2023-11-07T03:01:37.309Z,100446.72
2023-11-07T03:04:40.788Z,100449.34
2023-11-07T03:07:44.458Z,100457.00
2023-11-07T03:10:47.922Z,100450.56
2023-11-07T03:13:52.211Z,100438.62
2023-11-07T03:16:56.864Z,100437.44
2023-11-07T03:20:01.023Z,100446.63
2023-11-07T03:23:04.232Z,100453.53
2023-11-07T03:26:08.850Z,100459.72
2023-11-07T03:29:16.904Z,100471.22
2023-11-07T03:32:20.712Z,100467.41
2023-11-07T03:35:28.658Z,100475.41
2023-11-07T03:38:34.779Z,100476.22
2023-11-07T03:41:46.402Z,100478.81
2023-11-07T03:44:50.634Z,100469.88
2023-11-07T03:47:57.178Z,100473.44
2023-11-07T03:51:00.689Z,100478.13
2023-11-07T03:54:04.331Z,100469.94
2023-11-07T03:57:08.546Z,100476.22
2023-11-07T04:00:12.321Z,100477.00
2023-11-07T04:03:16.944Z,100493.94
2023-11-07T04:06:21.134Z,100489.53
2023-11-07T04:09:25.304Z,100487.78
2023-11-07T04:12:28.555Z,100468.44
2023-11-07T04:15:33.346Z,100460.75
2023-11-07T04:18:36.781Z,100465.97
2023-11-07T04:21:40.611Z,100487.84
2023-11-07T04:24:45.250Z,100489.47
2023-11-07T04:27:48.927Z,100477.94
2023-11-07T04:30:52.129Z,100481.66
2023-11-07T04:33:56.763Z,100490.78
2023-11-07T04:37:00.236Z,100494.72
2023-11-07T04:40:04.189Z,100489.13
2023-11-07T04:43:09.199Z,100484.59
2023-11-07T04:46:14.394Z,100501.41
2023-11-07T04:52:24.338Z,100495.94
2023-11-07T04:55:27.797Z,100487.91
2023-11-07T04:58:31.415Z,100509.25
2023-11-07T05:01:37.410Z,100507.41
2023-11-07T05:04:41.724Z,100511.78
2023-11-07T05:07:46.561Z,100486.66
2023-11-07T05:10:50.165Z,100518.81
2023-11-07T05:13:54.149Z,100521.75
2023-11-07T05:16:57.833Z,100521.34
2023-11-07T05:20:01.401Z,100521.56
2023-11-07T05:23:05.245Z,100508.84
2023-11-07T05:26:08.848Z,100511.59
2023-11-07T05:29:16.974Z,100503.75
2023-11-07T05:32:20.588Z,100522.31
2023-11-07T05:35:24.268Z,100527.63
2023-11-07T05:38:27.913Z,100522.38
2023-11-07T05:41:32.343Z,100509.88
2023-11-07T05:44:35.565Z,100522.25
2023-11-07T05:47:42.838Z,100498.97
2023-11-07T05:50:46.664Z,100532.22
2023-11-07T05:53:53.052Z,100527.63
2023-11-07T05:56:56.543Z,100535.72
2023-11-07T06:00:00.765Z,100540.84
2023-11-07T06:03:04.511Z,100540.72
2023-11-07T06:06:08.787Z,100539.03
2023-11-07T06:09:12.160Z,100553.94
2023-11-07T06:12:15.883Z,100558.16
2023-11-07T06:15:23.618Z,100553.44
2023-11-07T06:18:37.914Z,100556.91
2023-11-07T06:21:41.283Z,100563.19
2023-11-07T06:24:45.734Z,100561.25
2023-11-07T06:27:49.127Z,100548.91
2023-11-07T06:30:59.883Z,100555.81
2023-11-07T06:41:35.672Z,100581.72
2023-11-07T06:44:40.050Z,100573.56
2023-11-07T06:51:26.196Z,100580.97
2023-11-07T06:54:32.824Z,100578.50
2023-11-07T06:57:39.718Z,100591.41
2023-11-07T07:00:43.883Z,100609.78
2023-11-07T07:03:48.767Z,100616.72
2023-11-07T07:06:56.576Z,100622.12
2023-11-07T07:09:59.971Z,100624.88
2023-11-07T07:13:05.901Z,100620.44
2023-11-07T07:16:10.335Z,100616.84
2023-11-07T07:19:19.047Z,100623.91
2023-11-07T07:22:29.114Z,100618.09
2023-11-07T07:25:40.157Z,100611.91
2023-11-07T07:28:44.797Z,100631.41
2023-11-07T07:31:48.436Z,100637.75
2023-11-07T07:34:52.926Z,100643.00
2023-11-07T07:45:37.291Z,100629.72
2023-11-07T07:48:47.335Z,100625.34
2023-11-07T07:55:53.652Z,100634.19
2023-11-07T07:59:05.711Z,100627.72
2023-11-07T08:03:11.464Z,100638.06
2023-11-07T08:06:36.829Z,100619.19
2023-11-07T08:28:20.069Z,100638.94
2023-11-07T08:37:54.008Z,100576.28
2023-11-07T08:41:41.375Z,100643.28
2023-11-07T08:46:05.394Z,100635.09
2023-11-07T08:53:58.284Z,100653.66
2023-11-07T08:57:46.454Z,100649.16
2023-11-07T09:01:45.626Z,100577.97
2023-11-07T09:05:50.188Z,100636.38
2023-11-07T09:14:40.251Z,100651.19
2023-11-07T09:23:13.635Z,100639.84
2023-11-07T09:27:34.724Z,100589.37
2023-11-07T09:30:46.191Z,100664.78
2023-11-07T09:34:10.606Z,100632.72
2023-11-07T09:37:25.294Z,100644.94
2023-11-07T09:40:43.539Z,100635.69
2023-11-07T09:43:49.466Z,100638.03
2023-11-07T09:47:04.020Z,100634.81
2023-11-07T09:50:10.348Z,100633.25
2023-11-07T09:53:23.758Z,100636.38
2023-11-07T09:56:33.371Z,100628.19
2023-11-07T09:59:55.632Z,100618.12
2023-11-07T10:03:36.944Z,100630.09
2023-11-07T10:07:12.893Z,100622.84
2023-11-07T10:10:32.329Z,100638.62
2023-11-07T10:14:15.415Z,100627.91
2023-11-07T10:17:48.967Z,100555.66
2023-11-07T10:21:17.693Z,100623.44
2023-11-07T10:24:45.905Z,100619.81
2023-11-07T10:28:19.281Z,100614.34
2023-11-07T10:32:13.802Z,100619.31
2023-11-07T10:36:08.208Z,100609.25
2023-11-07T10:39:42.201Z,100597.09
2023-11-07T10:42:53.885Z,100612.47
2023-11-07T10:46:09.758Z,100618.16
2023-11-07T10:49:28.060Z,100610.75
2023-11-07T10:52:37.042Z,100612.22
2023-11-07T10:56:11.671Z,100610.97
2023-11-07T10:59:37.717Z,100605.56
2023-11-07T11:02:44.995Z,100602.94
2023-11-07T11:05:52.179Z,100593.63
2023-11-07T11:09:22.041Z,100543.97
2023-11-07T11:12:30.339Z,100561.59
2023-11-07T11:15:44.709Z,100587.75
2023-11-07T11:19:02.339Z,100588.00
2023-11-07T11:22:28.231Z,100599.66
2023-11-07T11:26:15.477Z,100613.03
2023-11-07T11:29:34.332Z,100613.87
2023-11-07T11:32:48.281Z,100595.47
2023-11-07T11:35:58.521Z,100617.78
2023-11-07T11:39:06.053Z,100599.22
2023-11-07T11:42:14.869Z,100595.03
2023-11-07T11:45:40.347Z,100581.69
2023-11-07T11:48:53.079Z,100581.66
2023-11-07T11:52:08.590Z,100566.34
2023-11-07T11:55:16.709Z,100552.81
2023-11-07T11:58:30.188Z,100556.00
2023-11-07T12:02:06.611Z,100560.66
2023-11-07T12:05:20.291Z,100557.41
2023-11-07T12:08:41.503Z,100553.47
2023-11-07T12:11:46.320Z,100540.81
2023-11-07T12:15:04.291Z,100553.62
2023-11-07T12:18:09.764Z,100550.97
2023-11-07T12:21:24.812Z,100548.38
2023-11-07T12:24:31.253Z,100555.53
2023-11-07T12:27:42.042Z,100568.16
2023-11-07T12:30:57.140Z,100543.97
2023-11-07T12:34:12.364Z,100554.12
2023-11-07T12:37:26.483Z,100539.56
2023-11-07T12:40:34.848Z,100533.28
2023-11-07T12:43:49.346Z,100543.91
2023-11-07T12:47:01.629Z,100529.59
2023-11-07T12:50:11.209Z,100522.81
2023-11-07T12:53:19.678Z,100498.06
2023-11-07T12:56:29.444Z,100536.25
2023-11-07T12:59:36.179Z,100520.69
2023-11-07T13:02:46.678Z,100512.28
2023-11-07T13:06:20.490Z,100505.78
2023-11-07T13:09:33.572Z,100425.69
2023-11-07T13:12:37.876Z,100503.22
2023-11-07T13:15:43.317Z,100498.66
2023-11-07T13:18:58.585Z,100493.31
2023-11-07T13:22:05.251Z,100485.91
2023-11-07T13:25:12.593Z,100493.31
2023-11-07T13:28:16.431Z,100497.25
2023-11-07T13:31:23.247Z,100490.56
2023-11-07T13:34:28.081Z,100492.22
2023-11-07T13:37:32.569Z,100476.59
2023-11-07T13:40:36.650Z,100479.25
2023-11-07T13:43:43.517Z,100481.97
2023-11-07T13:46:48.240Z,100474.69
2023-11-07T13:49:57.400Z,100496.16
2023-11-07T13:53:01.510Z,100479.34
2023-11-07T13:56:10.011Z,100500.81
2023-11-07T13:59:14.668Z,100508.81
2023-11-07T14:02:19.785Z,100511.25
2023-11-07T14:05:23.889Z,100511.06
2023-11-07T14:08:27.374Z,100509.13
2023-11-07T14:11:32.232Z,100494.34
2023-11-07T14:14:42.296Z,100498.00
2023-11-07T14:17:47.796Z,100506.03
2023-11-07T14:20:59.821Z,100494.44
2023-11-07T14:24:06.649Z,100482.03
2023-11-07T14:27:22.115Z,100454.41
2023-11-07T14:30:37.759Z,100484.75
2023-11-07T14:33:43.685Z,100497.72
2023-11-07T14:36:56.600Z,100459.78
2023-11-07T14:40:11.861Z,100509.97
2023-11-07T14:43:17.633Z,100485.47
2023-11-07T14:46:22.171Z,100475.13
2023-11-07T14:49:27.800Z,100414.44
2023-11-07T14:52:31.997Z,100457.50
2023-11-07T14:55:36.972Z,100499.09
2023-11-07T14:58:43.109Z,100500.84
2023-11-07T15:01:51.021Z,100493.97
2023-11-07T15:04:54.745Z,100454.97
2023-11-07T15:08:06.592Z,100490.84
2023-11-07T15:11:12.759Z,100466.63
2023-11-07T15:14:16.753Z,100490.66
2023-11-07T15:17:23.025Z,100488.37
2023-11-07T15:20:33.071Z,100490.75
2023-11-07T15:23:36.782Z,100484.81
2023-11-07T15:26:40.829Z,100482.03
2023-11-07T15:29:44.318Z,100464.19
2023-11-07T15:32:52.424Z,100466.28
2023-11-07T15:35:57.809Z,100481.25
2023-11-07T15:39:01.709Z,100459.03
2023-11-07T15:42:05.491Z,100476.41
2023-11-07T15:45:10.912Z,100442.75
2023-11-07T15:48:14.216Z,100483.16
2023-11-07T15:51:19.041Z,100478.91
2023-11-07T15:54:25.105Z,100458.78
2023-11-07T15:57:29.335Z,100464.81
2023-11-07T16:00:41.784Z,100432.50
2023-11-07T16:03:49.601Z,100492.84
2023-11-07T16:06:53.358Z,100423.31
2023-11-07T16:09:59.087Z,100499.34
2023-11-07T16:13:04.175Z,100504.56
2023-11-07T16:16:10.259Z,100494.81
2023-11-07T16:19:14.165Z,100500.22
2023-11-07T16:22:19.301Z,100482.66
2023-11-07T16:25:22.740Z,100458.78
2023-11-07T16:28:29.735Z,100497.72
2023-11-07T16:31:37.579Z,100479.97
2023-11-07T16:34:45.719Z,100479.97
2023-11-07T16:37:49.748Z,100496.41
2023-11-07T16:40:54.925Z,100488.50
2023-11-07T16:43:58.838Z,100491.97
2023-11-07T16:47:09.657Z,100488.31
2023-11-07T16:50:16.854Z,100473.94
2023-11-07T16:53:21.097Z,100468.53
2023-11-07T16:56:30.328Z,100474.81
2023-11-07T16:59:40.935Z,100475.84
2023-11-07T17:02:48.283Z,100468.91
2023-11-07T17:05:55.508Z,100453.66
2023-11-07T17:09:06.142Z,100453.75
2023-11-07T17:12:22.117Z,100454.78
2023-11-07T17:15:33.772Z,100435.53
2023-11-07T17:18:42.304Z,100443.66
2023-11-07T17:21:56.153Z,100420.13
2023-11-07T17:25:02.243Z,100399.75
2023-11-07T17:28:09.563Z,100413.16
2023-11-07T21:35:11.123Z,100359.59
2023-11-07T21:38:20.148Z,100352.50
2023-11-07T21:41:25.155Z,100349.81
2023-11-07T21:44:31.874Z,100340.44
2023-11-07T21:47:38.219Z,100353.47
2023-11-07T21:50:43.171Z,100328.84
2023-11-07T21:53:49.412Z,100345.47
2023-11-07T21:56:57.967Z,100336.16
2023-11-07T22:00:01.559Z,100338.13
2023-11-07T22:03:09.488Z,100357.59
2023-11-07T22:06:14.278Z,100362.91
2023-11-07T22:09:22.013Z,100351.16
2023-11-07T22:12:27.204Z,100352.09
2023-11-07T22:15:33.638Z,100338.97
2023-11-07T22:18:38.381Z,100347.50
2023-11-07T22:21:42.213Z,100333.13
2023-11-07T22:24:48.444Z,100336.59
2023-11-07T22:27:54.413Z,100331.09
2023-11-07T22:30:58.089Z,100317.00
2023-11-07T22:34:04.250Z,100328.22
2023-11-07T22:37:08.101Z,100321.69
2023-11-07T22:40:12.319Z,100312.63
2023-11-07T22:43:17.188Z,100318.91
2023-11-07T22:46:20.426Z,100325.16
2023-11-07T22:49:26.581Z,100321.50
2023-11-07T22:52:30.370Z,100324.19
2023-11-07T22:55:34.365Z,100322.37
2023-11-07T22:58:39.174Z,100313.31
2023-11-07T23:01:42.834Z,100310.63
2023-11-07T23:04:46.303Z,100300.66
2023-11-07T23:07:50.701Z,100293.44
2023-11-07T23:10:54.075Z,100277.69
2023-11-07T23:13:58.441Z,100290.94
2023-11-07T23:17:01.868Z,100293.44
2023-11-07T23:20:10.600Z,100268.22
2023-11-07T23:23:14.831Z,100274.06
2023-11-07T23:26:24.093Z,100274.31
2023-11-07T23:29:30.578Z,100279.03
2023-11-07T23:32:40.084Z,100281.91
2023-11-07T23:35:43.473Z,100301.22
2023-11-07T23:38:46.949Z,100308.37
2023-11-07T23:41:50.995Z,100291.56
2023-11-07T23:44:57.958Z,100283.47
2023-11-07T23:48:01.708Z,100293.81
2023-11-07T23:51:05.554Z,100290.94
2023-11-07T23:54:09.890Z,100292.75
2023-11-07T23:57:13.704Z,100298.09
